createdAt,value
2023-03-03T00:00:38.720Z,70.77
2023-03-03T00:03:42.934Z,71.18
2023-03-03T00:06:45.925Z,70.33
2023-03-03T00:09:48.741Z,71.33
2023-03-03T00:12:51.948Z,70.91
2023-03-03T00:15:57.222Z,71.37
2023-03-03T00:19:01.963Z,71.30
2023-03-03T00:22:17.238Z,71.83
2023-03-03T00:25:29.739Z,71.65
2023-03-03T00:28:42.140Z,72.64
2023-03-03T00:31:44.812Z,73.39
2023-03-03T00:34:49.718Z,72.52
2023-03-03T00:37:56.278Z,72.45
2023-03-03T00:40:59.102Z,72.87
2023-03-03T00:44:01.970Z,72.64
2023-03-03T00:47:31.256Z,72.87
2023-03-03T00:50:36.727Z,73.32
2023-03-03T00:53:39.473Z,72.45
2023-03-03T00:56:42.249Z,72.32
2023-03-03T00:59:44.988Z,71.88
2023-03-03T01:02:48.553Z,72.07
2023-03-03T01:05:53.666Z,72.33
2023-03-03T01:08:57.378Z,72.55
2023-03-03T01:12:00.990Z,72.45
2023-03-03T01:15:03.981Z,72.76
2023-03-03T01:18:07.082Z,71.95
2023-03-03T01:21:12.318Z,72.75
2023-03-03T01:24:15.240Z,72.45
2023-03-03T01:27:18.294Z,73.16
2023-03-03T01:30:21.230Z,71.99
2023-03-03T01:33:23.937Z,72.06
2023-03-03T01:36:29.564Z,71.77
2023-03-03T01:39:32.420Z,72.00
2023-03-03T01:42:35.356Z,72.51
2023-03-03T01:46:06.739Z,72.79
2023-03-03T01:49:15.478Z,72.41
2023-03-03T01:52:27.415Z,73.20
2023-03-03T01:55:34.892Z,73.06
2023-03-03T01:58:42.696Z,72.48
2023-03-03T02:01:48.187Z,72.95
2023-03-03T02:04:51.584Z,72.57
2023-03-03T02:07:55.917Z,72.64
2023-03-03T02:10:59.846Z,72.04
2023-03-03T02:14:02.705Z,71.96
2023-03-03T02:17:05.596Z,72.76
2023-03-03T02:20:14.443Z,72.67
2023-03-03T02:23:28.027Z,73.26
2023-03-03T02:26:34.931Z,73.38
2023-03-03T02:29:37.956Z,73.53
2023-03-03T02:32:40.868Z,74.00
2023-03-03T02:35:44.154Z,73.37
2023-03-03T02:38:52.724Z,73.52
2023-03-03T02:42:02.495Z,73.66
2023-03-03T02:45:06.021Z,72.80
2023-03-03T02:48:08.792Z,73.02
2023-03-03T02:51:11.688Z,72.73
2023-03-03T02:54:16.074Z,72.83
2023-03-03T02:57:20.127Z,73.74
2023-03-03T03:00:23.056Z,74.32
2023-03-03T03:03:25.959Z,74.72
2023-03-03T03:06:28.652Z,74.65
2023-03-03T03:09:31.423Z,75.10
2023-03-03T03:12:35.478Z,75.89
2023-03-03T03:15:38.529Z,75.65
2023-03-03T03:18:41.326Z,76.52
2023-03-03T03:21:44.628Z,76.53
2023-03-03T03:24:47.818Z,76.73
2023-03-03T03:27:52.132Z,77.48
2023-03-03T03:30:55.167Z,77.16
2023-03-03T03:33:57.944Z,77.34
2023-03-03T03:37:00.659Z,76.90
2023-03-03T03:40:03.383Z,77.08
2023-03-03T03:43:08.227Z,76.79
2023-03-03T03:46:10.966Z,76.08
2023-03-03T03:49:14.267Z,76.24
2023-03-03T03:52:17.294Z,75.78
2023-03-03T03:55:20.174Z,75.76
2023-03-03T03:58:24.499Z,75.08
2023-03-03T04:01:27.229Z,74.92
2023-03-03T04:04:29.882Z,74.52
2023-03-03T04:07:32.596Z,74.79
2023-03-03T04:10:35.817Z,75.18
2023-03-03T04:13:40.089Z,75.63
2023-03-03T04:16:42.720Z,75.49
2023-03-03T04:19:45.708Z,74.83
2023-03-03T04:22:48.829Z,75.58
2023-03-03T04:25:51.552Z,75.45
2023-03-03T04:28:59.051Z,76.03
2023-03-03T04:32:01.831Z,75.64
2023-03-03T04:35:08.457Z,75.86
2023-03-03T04:38:11.536Z,75.49
2023-03-03T04:41:14.459Z,74.90
2023-03-03T04:44:18.519Z,74.91
2023-03-03T04:47:21.308Z,75.58
2023-03-03T04:50:24.044Z,75.63
2023-03-03T04:53:27.323Z,75.29
2023-03-03T04:56:32.523Z,75.79
2023-03-03T04:59:36.917Z,74.84
2023-03-03T05:02:39.637Z,74.97
2023-03-03T05:05:42.669Z,74.28
2023-03-03T05:08:45.600Z,75.15
2023-03-03T05:11:48.472Z,75.36
2023-03-03T05:14:52.664Z,75.15
2023-03-03T05:17:56.438Z,74.80
2023-03-03T05:20:59.365Z,74.96
2023-03-03T05:24:02.178Z,74.53
2023-03-03T05:27:05.587Z,75.07
2023-03-03T05:30:11.423Z,75.09
2023-03-03T05:33:16.184Z,74.93
2023-03-03T05:36:19.027Z,75.86
2023-03-03T05:39:21.886Z,75.92
2023-03-03T05:42:24.761Z,76.51
2023-03-03T05:45:29.160Z,76.49
2023-03-03T05:48:31.939Z,77.25
2023-03-03T05:51:34.877Z,77.01
2023-03-03T05:54:37.871Z,76.49
2023-03-03T05:57:40.700Z,75.79
2023-03-03T06:00:44.795Z,75.90
2023-03-03T06:03:47.738Z,75.48
2023-03-03T06:06:50.930Z,76.50
2023-03-03T06:09:53.657Z,76.78
2023-03-03T06:12:56.356Z,77.38
2023-03-03T06:16:00.528Z,77.60
2023-03-03T06:19:03.398Z,78.30
2023-03-03T06:22:06.088Z,76.99
2023-03-03T06:25:09.634Z,76.20
2023-03-03T06:28:13.412Z,76.21
2023-03-03T06:31:17.571Z,75.26
2023-03-03T06:34:20.836Z,74.55
2023-03-03T06:37:23.531Z,74.96
2023-03-03T06:40:26.430Z,75.49
2023-03-03T06:43:29.571Z,74.58
2023-03-03T06:46:33.782Z,73.55
2023-03-03T06:49:36.753Z,72.13
2023-03-03T06:52:39.972Z,72.24
2023-03-03T06:55:44.974Z,71.07
2023-03-03T06:58:47.767Z,71.19
2023-03-03T07:01:52.515Z,71.60
2023-03-03T07:04:57.703Z,70.99
2023-03-03T07:08:00.385Z,71.21
2023-03-03T07:11:10.199Z,71.17
2023-03-03T07:14:17.917Z,71.18
2023-03-03T07:17:24.356Z,70.71
2023-03-03T07:20:35.102Z,71.13
2023-03-03T07:23:42.782Z,70.72
2023-03-03T07:26:45.947Z,70.85
2023-03-03T07:29:51.562Z,69.89
2023-03-03T07:32:57.747Z,70.01
2023-03-03T07:36:01.265Z,68.29
2023-03-03T07:39:17.269Z,69.92
2023-03-03T07:42:23.805Z,69.84
2023-03-03T07:45:29.104Z,69.71
2023-03-03T07:48:37.394Z,69.39
2023-03-03T07:51:42.726Z,68.79
2023-03-03T07:54:47.731Z,66.85
2023-03-03T07:57:54.685Z,65.75
2023-03-03T08:01:27.677Z,65.89
2023-03-03T08:04:42.148Z,64.82
2023-03-03T08:07:45.176Z,64.46
2023-03-03T08:10:50.168Z,64.31
2023-03-03T08:13:53.108Z,63.52
2023-03-03T08:16:56.917Z,62.71
2023-03-03T08:20:01.128Z,63.17
2023-03-03T08:23:03.901Z,62.41
2023-03-03T08:26:07.537Z,60.97
2023-03-03T08:29:12.006Z,61.17
2023-03-03T08:32:15.333Z,61.67
2023-03-03T08:35:19.944Z,60.92
2023-03-03T08:38:23.458Z,60.69
2023-03-03T08:41:26.265Z,60.47
2023-03-03T08:44:29.414Z,59.60
2023-03-03T08:47:32.325Z,60.54
2023-03-03T08:50:36.684Z,59.11
2023-03-03T08:53:39.499Z,58.97
2023-03-03T08:56:42.445Z,58.59
2023-03-03T08:59:47.835Z,58.76
2023-03-03T09:02:52.486Z,57.77
2023-03-03T09:05:57.174Z,59.46
2023-03-03T09:09:00.148Z,58.23
2023-03-03T09:12:14.240Z,60.10
2023-03-03T09:15:21.617Z,58.73
2023-03-03T09:18:32.959Z,58.52
2023-03-03T09:21:37.140Z,57.56
2023-03-03T09:24:39.886Z,57.42
2023-03-03T09:27:42.736Z,57.62
2023-03-03T09:30:49.776Z,57.14
2023-03-03T09:33:55.260Z,56.78
2023-03-03T09:37:00.084Z,56.22
2023-03-03T09:40:33.941Z,55.76
2023-03-03T09:43:43.943Z,56.57
2023-03-03T09:46:59.581Z,57.24
2023-03-03T09:50:15.468Z,55.94
2023-03-03T09:53:34.778Z,54.41
2023-03-03T09:56:43.614Z,55.47
2023-03-03T10:00:09.085Z,54.78
2023-03-03T10:03:39.485Z,54.19
2023-03-03T10:06:49.950Z,53.55
2023-03-03T10:10:17.256Z,54.18
2023-03-03T10:13:38.049Z,54.38
2023-03-03T10:17:17.034Z,54.20
2023-03-03T10:20:40.363Z,54.82
2023-03-03T10:23:58.986Z,54.32
2023-03-03T10:27:19.961Z,53.67
2023-03-03T10:30:41.119Z,54.15
2023-03-03T10:33:55.656Z,53.13
2023-03-03T10:37:04.625Z,52.62
2023-03-03T10:40:17.281Z,51.19
2023-03-03T10:43:42.895Z,49.96
2023-03-03T10:47:08.807Z,50.29
2023-03-03T10:50:19.224Z,50.14
2023-03-03T10:53:33.685Z,51.20
2023-03-03T10:56:53.340Z,48.61
2023-03-03T11:00:09.338Z,47.96
2023-03-03T11:03:50.108Z,50.03
2023-03-03T11:07:01.055Z,47.47
2023-03-03T11:10:23.790Z,49.74
2023-03-03T11:13:37.689Z,47.88
2023-03-03T11:16:58.893Z,48.32
2023-03-03T11:20:06.844Z,48.07
2023-03-03T11:23:41.170Z,47.76
2023-03-03T11:27:00.106Z,47.85
2023-03-03T11:30:19.072Z,47.45
2023-03-03T11:33:28.434Z,47.92
2023-03-03T11:36:36.088Z,48.69
2023-03-03T11:39:40.660Z,48.11
2023-03-03T11:42:55.008Z,48.32
2023-03-03T11:46:04.909Z,48.08
2023-03-03T11:49:17.275Z,47.87
2023-03-03T11:52:31.133Z,49.25
2023-03-03T11:55:38.254Z,49.35
2023-03-03T11:58:46.064Z,49.19
2023-03-03T12:01:57.424Z,49.53
2023-03-03T12:05:11.735Z,47.93
2023-03-03T12:08:27.230Z,48.74
2023-03-03T12:11:39.757Z,49.24
2023-03-03T12:15:01.115Z,48.80
2023-03-03T12:18:24.833Z,48.80
2023-03-03T12:21:46.067Z,46.97
2023-03-03T12:25:20.401Z,46.83
2023-03-03T12:28:27.731Z,48.20
2023-03-03T12:31:47.306Z,47.76
2023-03-03T12:34:54.844Z,44.60
2023-03-03T12:38:07.453Z,42.98
2023-03-03T12:41:16.179Z,43.32
2023-03-03T12:44:25.250Z,42.60
2023-03-03T12:47:31.075Z,42.26
2023-03-03T12:50:44.844Z,41.85
2023-03-03T12:54:09.187Z,42.55
2023-03-03T12:57:27.522Z,41.08
2023-03-03T13:00:42.294Z,40.64
2023-03-03T13:03:56.128Z,40.75
2023-03-03T13:07:03.702Z,41.17
2023-03-03T13:10:18.197Z,40.39
2023-03-03T13:13:29.474Z,40.74
2023-03-03T13:16:41.429Z,40.73
2023-03-03T13:19:49.094Z,40.63
2023-03-03T13:22:56.736Z,39.63
2023-03-03T13:26:07.849Z,39.54
2023-03-03T13:29:16.469Z,39.02
2023-03-03T13:32:23.318Z,40.03
2023-03-03T13:35:39.347Z,39.57
2023-03-03T13:38:48.021Z,39.81
2023-03-03T13:41:58.352Z,40.05
2023-03-03T13:45:04.074Z,39.23
2023-03-03T13:48:23.739Z,40.24
2023-03-03T13:51:37.290Z,39.71
2023-03-03T13:55:02.857Z,40.02
2023-03-03T13:58:22.364Z,41.04
2023-03-03T14:01:33.342Z,40.71
2023-03-03T14:04:48.249Z,40.23
2023-03-03T14:07:57.101Z,41.02
2023-03-03T14:11:11.431Z,40.77
2023-03-03T14:14:32.413Z,41.77
2023-03-03T14:17:42.629Z,40.92
2023-03-03T14:20:49.272Z,40.92
2023-03-03T14:24:00.586Z,40.62
2023-03-03T14:27:24.260Z,40.53
2023-03-03T14:30:35.197Z,41.34
2023-03-03T14:33:38.234Z,41.32
2023-03-03T14:36:43.945Z,41.80
2023-03-03T14:39:51.634Z,41.27
2023-03-03T14:42:56.595Z,41.33
2023-03-03T14:46:33.620Z,41.50
2023-03-03T14:49:38.562Z,41.76
2023-03-03T14:52:41.508Z,41.94
2023-03-03T14:55:46.216Z,41.27
2023-03-03T14:58:49.209Z,41.97
2023-03-03T15:01:59.588Z,42.64
2023-03-03T15:05:21.158Z,41.84
2023-03-03T15:08:32.473Z,42.61
2023-03-03T15:11:37.431Z,42.91
2023-03-03T15:14:45.981Z,43.33
2023-03-03T15:17:59.188Z,43.83
2023-03-03T15:21:06.451Z,43.36
2023-03-03T15:24:19.065Z,44.03
2023-03-03T15:27:28.037Z,44.63
2023-03-03T15:30:37.241Z,45.25
2023-03-03T15:33:48.031Z,44.97
2023-03-03T15:36:56.824Z,46.00
2023-03-03T15:40:06.095Z,45.41
2023-03-03T15:43:21.326Z,45.49
2023-03-03T15:46:37.161Z,45.92
2023-03-03T15:50:10.592Z,45.49
2023-03-03T15:53:38.113Z,46.24
2023-03-03T15:56:48.036Z,45.95
2023-03-03T16:00:16.177Z,46.56
2023-03-03T16:03:24.818Z,47.74
2023-03-03T16:06:38.578Z,46.94
2023-03-03T16:09:57.467Z,46.43
2023-03-03T16:13:08.482Z,47.51
2023-03-03T16:16:25.878Z,47.79
2023-03-03T16:19:41.224Z,47.91
2023-03-03T16:22:57.358Z,48.61
2023-03-03T16:26:27.784Z,48.21
2023-03-03T16:29:42.460Z,48.05
2023-03-03T16:32:50.664Z,48.58
2023-03-03T16:36:04.596Z,49.86
2023-03-03T16:39:16.316Z,51.00
2023-03-03T16:42:26.561Z,51.24
2023-03-03T16:45:36.555Z,51.62
2023-03-03T16:48:46.864Z,52.83
2023-03-03T16:51:54.861Z,53.87
2023-03-03T16:55:06.128Z,53.57
2023-03-03T16:58:23.269Z,53.91
2023-03-03T17:01:33.292Z,54.58
2023-03-03T17:04:42.469Z,55.14
2023-03-03T17:07:55.470Z,55.26
2023-03-03T17:11:05.711Z,55.49
2023-03-03T17:14:19.934Z,56.18
2023-03-03T17:17:32.722Z,56.92
2023-03-03T17:20:40.700Z,57.06
2023-03-03T17:23:52.808Z,57.44
2023-03-03T17:27:13.598Z,57.85
2023-03-03T17:30:22.467Z,58.28
2023-03-03T17:33:59.255Z,58.46
2023-03-03T17:37:16.837Z,59.23
2023-03-03T17:40:42.464Z,59.33
2023-03-03T17:43:57.552Z,59.69
2023-03-03T17:47:05.453Z,59.98
2023-03-03T17:50:23.138Z,60.36
2023-03-03T17:53:51.189Z,60.73
2023-03-03T17:57:06.192Z,60.54
2023-03-03T18:00:25.749Z,61.36
2023-03-03T18:04:04.261Z,61.74
2023-03-03T18:07:29.958Z,62.16
2023-03-03T18:10:53.214Z,61.94
2023-03-03T18:14:31.283Z,62.11
2023-03-03T18:17:49.141Z,63.08
2023-03-03T18:21:01.396Z,62.96
2023-03-03T18:24:31.724Z,63.20
2023-03-03T18:27:36.970Z,62.95
2023-03-03T18:30:56.991Z,63.25
2023-03-03T18:34:09.777Z,63.37
2023-03-03T18:37:37.760Z,64.24
2023-03-03T18:40:51.813Z,63.56
2023-03-03T18:44:00.473Z,64.36
2023-03-03T18:47:03.289Z,64.62
2023-03-03T18:50:17.397Z,63.91
2023-03-03T18:53:24.790Z,64.29
2023-03-03T18:56:46.008Z,65.09
2023-03-03T18:59:58.383Z,64.39
2023-03-03T19:03:01.525Z,64.85
2023-03-03T19:06:10.221Z,65.35
2023-03-03T19:09:18.836Z,65.17
2023-03-03T19:12:52.019Z,64.70
2023-03-03T19:15:59.243Z,64.97
2023-03-03T19:19:07.393Z,65.55
2023-03-03T19:22:25.622Z,65.07
2023-03-03T19:25:31.741Z,65.64
2023-03-03T19:28:43.496Z,65.31
2023-03-03T19:31:54.301Z,65.49
2023-03-03T19:35:09.753Z,65.72
2023-03-03T19:38:26.215Z,66.37
2023-03-03T19:41:45.621Z,66.81
2023-03-03T19:45:03.827Z,67.16
2023-03-03T19:48:15.735Z,67.79
2023-03-03T19:51:29.324Z,68.47
2023-03-03T19:54:49.165Z,67.59
2023-03-03T19:58:03.597Z,67.99
2023-03-03T20:01:19.050Z,67.52
2023-03-03T20:04:54.037Z,67.58
2023-03-03T20:08:02.889Z,67.67
2023-03-03T20:11:13.448Z,67.26
2023-03-03T20:14:32.249Z,67.32
2023-03-03T20:18:10.701Z,68.18
2023-03-03T20:21:25.311Z,68.42
2023-03-03T20:24:59.978Z,67.68
2023-03-03T20:28:14.167Z,67.65
2023-03-03T20:31:23.503Z,67.27
2023-03-03T20:34:38.976Z,67.81
2023-03-03T20:37:53.631Z,68.28
2023-03-03T20:41:06.505Z,67.77
2023-03-03T20:44:19.277Z,67.06
2023-03-03T20:47:34.412Z,67.55
2023-03-03T20:50:51.268Z,68.22
2023-03-03T20:54:07.389Z,68.64
2023-03-03T20:57:18.000Z,68.94
2023-03-03T21:00:26.073Z,68.90
2023-03-03T21:03:34.255Z,68.60
2023-03-03T21:06:41.581Z,67.99
2023-03-03T21:09:47.412Z,67.95
2023-03-03T21:12:50.367Z,68.13
2023-03-03T21:15:56.998Z,68.15
2023-03-03T21:19:03.102Z,69.15
2023-03-03T21:22:07.319Z,69.89
2023-03-03T21:25:13.609Z,68.97
2023-03-03T21:28:22.426Z,69.28
2023-03-03T21:31:25.435Z,70.26
2023-03-03T21:34:30.661Z,70.40
2023-03-03T21:37:52.262Z,70.36
2023-03-03T21:41:01.255Z,70.87
2023-03-03T21:44:31.172Z,70.24
2023-03-03T21:47:34.018Z,70.20
2023-03-03T21:50:36.932Z,69.62
2023-03-03T21:53:41.415Z,69.39
2023-03-03T21:56:44.305Z,69.06
2023-03-03T21:59:47.424Z,69.78
2023-03-03T22:02:50.292Z,69.95
2023-03-03T22:05:53.586Z,69.23
2023-03-03T22:08:58.013Z,69.70
2023-03-03T22:12:00.929Z,69.13
2023-03-03T22:15:04.056Z,69.62
2023-03-03T22:18:07.028Z,69.17
2023-03-03T22:21:09.941Z,70.03
2023-03-03T22:24:14.186Z,69.17
2023-03-03T22:27:17.014Z,69.34
2023-03-03T22:30:20.050Z,68.73
2023-03-03T22:33:23.278Z,69.34
2023-03-03T22:36:26.236Z,68.97
2023-03-03T22:39:30.581Z,68.83
2023-03-03T22:42:33.548Z,68.78
2023-03-03T22:45:36.557Z,69.21
2023-03-03T22:48:40.004Z,69.38
2023-03-03T22:51:43.258Z,69.45
2023-03-03T22:54:47.458Z,69.75
2023-03-03T22:57:50.356Z,69.83
2023-03-03T23:00:54.497Z,70.10
2023-03-03T23:03:57.383Z,70.33
2023-03-03T23:07:00.384Z,69.97
2023-03-03T23:10:05.833Z,69.33
2023-03-03T23:13:09.004Z,69.51
2023-03-03T23:16:12.085Z,70.08
2023-03-03T23:19:15.008Z,70.64
2023-03-03T23:22:18.746Z,70.91
2023-03-03T23:25:24.167Z,70.00
2023-03-03T23:28:26.918Z,70.20
2023-03-03T23:31:30.585Z,69.95
2023-03-03T23:34:33.766Z,70.38
2023-03-03T23:37:36.732Z,70.45
2023-03-03T23:40:40.937Z,69.86
2023-03-03T23:43:43.793Z,69.43
2023-03-03T23:46:46.610Z,70.56
2023-03-03T23:49:49.377Z,70.33
2023-03-03T23:52:53.046Z,70.72
2023-03-03T23:55:57.230Z,70.80
2023-03-03T23:58:59.944Z,69.88
